Time;durP1;ratioP1;P1;durP2;ratioP2;P2;SDS_P1;SDS_P2;PMS_P1;PMS_P2;Temp;Humidity;BMP_temperature;BMP_pressure;BME280_temperature;BME280_humidity;BME280_pressure;Samples;Min_cycle;Max_cycle;Signal;HPM_P1;HPM_P2
2023/03/17 00:00:43;;;;;;;8.95;5.95;;;;;;;-1.19;52.36;63576.22;4975876;28;20043;-75
2023/03/17 00:03:24;;;;;;;8.38;5.95;;;;;;;-1.22;51.88;63573.44;4959858;28;20125;-75
2023/03/17 00:05:52;;;;;;;11.80;5.82;;;;;;;-1.34;52.04;63560.63;4976110;28;20050;-75
2023/03/17 00:08:26;;;;;;;8.93;5.97;;;;;;;-1.41;51.75;63552.31;4977216;28;20047;-75
2023/03/17 00:10:52;;;;;;;11.23;5.90;;;;;;;-1.39;51.79;63554.50;4976120;28;20058;-76
2023/03/17 00:13:18;;;;;;;8.68;5.38;;;;;;;-1.34;51.64;63576.22;4975553;28;20410;-75
2023/03/17 00:15:54;;;;;;;16.20;5.60;;;;;;;-1.30;51.75;63565.09;4975837;28;20513;-76
2023/03/17 00:18:21;;;;;;;10.00;6.22;;;;;;;-1.25;52.10;63570.63;4975709;28;20077;-76
2023/03/17 00:20:47;;;;;;;9.95;6.18;;;;;;;-1.27;51.78;63568.44;4959570;28;20042;-76
2023/03/17 00:23:18;;;;;;;18.73;9.10;;;;;;;-1.23;51.87;63572.31;4976659;28;20553;-75
2023/03/17 00:25:45;;;;;;;16.48;6.63;;;;;;;-1.25;51.98;63570.63;4975533;28;20065;-76
2023/03/17 00:28:20;;;;;;;16.70;6.75;;;;;;;-1.27;52.17;63568.44;4975523;28;20047;-75
2023/03/17 00:30:48;;;;;;;11.43;6.53;;;;;;;-1.23;52.04;63572.88;4975283;28;20065;-74
2023/03/17 00:33:15;;;;;;;13.45;7.05;;;;;;;-1.24;52.14;63571.22;4976515;28;20046;-75
2023/03/17 00:35:43;;;;;;;8.27;6.35;;;;;;;-1.27;51.87;63567.88;4976249;28;20043;-75
2023/03/17 00:38:14;;;;;;;25.65;8.20;;;;;;;-1.25;52.25;63570.63;4974955;28;20057;-77
2023/03/17 00:40:40;;;;;;;12.13;6.97;;;;;;;-1.27;51.82;63567.88;4959441;28;20046;-74
2023/03/17 00:43:07;;;;;;;18.75;7.95;;;;;;;-1.24;51.75;63571.22;4991326;28;20043;-76
2023/03/17 00:45:36;;;;;;;15.23;7.53;;;;;;;-1.25;51.98;63570.63;4959014;28;20093;-77
2023/03/17 00:48:02;;;;;;;17.63;7.50;;;;;;;-1.29;52.25;63565.63;4991426;28;20039;-76
2023/03/17 00:50:28;;;;;;;13.05;7.75;;;;;;;-1.30;52.32;63565.09;4975047;28;20379;-76
2023/03/17 00:52:56;;;;;;;10.82;7.20;;;;;;;-1.25;52.30;63570.63;4976098;28;20409;-76
2023/03/17 00:55:25;;;;;;;9.73;6.05;;;;;;;-1.27;52.10;63568.44;4943045;28;20497;-74
2023/03/17 00:57:53;;;;;;;16.25;7.75;;;;;;;-1.19;51.91;63576.75;4959075;28;20047;-75
2023/03/17 01:00:25;;;;;;;12.77;6.80;;;;;;;-1.15;51.79;63580.66;4976475;28;20058;-76
2023/03/17 01:02:53;;;;;;;17.23;7.40;;;;;;;-1.08;51.79;63588.44;4958969;28;20051;-76
2023/03/17 01:05:20;;;;;;;18.10;8.77;;;;;;;-1.09;51.69;63587.31;4976024;28;20098;-75
2023/03/17 01:07:51;;;;;;;27.30;8.43;;;;;;;-1.02;51.91;63595.09;4957420;28;20050;-75
2023/03/17 01:10:26;;;;;;;13.02;8.73;;;;;;;-1.00;52.09;63597.34;4976274;28;20038;-75
2023/03/17 01:12:54;;;;;;;20.67;9.32;;;;;;;-1.01;52.00;63596.22;4958783;28;20077;-75
2023/03/17 01:15:21;;;;;;;15.05;9.00;;;;;;;-0.99;52.26;63598.44;4958318;28;20042;-76
2023/03/17 01:17:49;;;;;;;20.80;9.23;;;;;;;-1.11;52.03;63585.66;4974676;28;20046;-78
2023/03/17 01:20:20;;;;;;;17.27;8.80;;;;;;;-0.99;51.71;63614.03;4975654;28;20049;-76
2023/03/17 01:22:47;;;;;;;24.15;9.90;;;;;;;-0.96;52.20;63601.22;4975765;28;20505;-75
2023/03/17 01:25:14;;;;;;;31.00;9.38;;;;;;;-0.95;52.03;63602.34;4976309;28;20557;-76
2023/03/17 01:27:40;;;;;;;22.10;9.20;;;;;;;-0.90;51.62;63608.47;4974986;28;20047;-75
2023/03/17 01:30:28;;;;;;;22.27;9.30;;;;;;;-0.88;51.34;63610.69;4974665;28;20556;-75
2023/03/17 01:32:55;;;;;;;14.43;8.70;;;;;;;-0.86;51.38;63612.38;4975793;28;20070;-76
2023/03/17 01:35:23;;;;;;;10.60;6.03;;;;;;;-0.87;50.75;63611.22;4958645;28;20153;-76
2023/03/17 01:37:50;;;;;;;24.52;7.68;;;;;;;-0.90;50.75;63608.47;4974240;28;20502;-76
2023/03/17 01:40:22;;;;;;;11.68;5.85;;;;;;;-0.91;50.46;63607.34;4975302;28;20415;-75
2023/03/17 01:42:53;;;;;;;13.50;5.35;;;;;;;-0.94;49.87;63604.03;4958099;28;20085;-75
2023/03/17 01:45:57;;;;;;;11.85;5.90;;;;;;;-0.92;49.76;63606.22;4974242;28;20533;-76
2023/03/17 01:48:25;;;;;;;9.25;6.00;;;;;;;-0.95;49.38;63602.91;4974183;28;20430;-76
2023/03/17 01:50:52;;;;;;;9.93;5.32;;;;;;;-0.98;49.38;63599.56;4957747;28;20141;-75
2023/03/17 01:53:20;;;;;;;7.65;4.75;;;;;;;-0.99;48.79;63598.44;4990296;28;20398;-76
2023/03/17 01:55:48;;;;;;;8.48;4.78;;;;;;;-0.96;48.88;63601.78;4958135;28;20131;-75
2023/03/17 01:58:15;;;;;;;10.00;4.95;;;;;;;-0.98;48.21;63599.56;4957739;28;20053;-74
2023/03/17 02:00:42;;;;;;;13.32;5.93;;;;;;;-1.03;48.27;63594.00;4990190;28;20047;-76
2023/03/17 02:03:09;;;;;;;8.52;5.40;;;;;;;-1.02;48.83;63595.09;4974091;28;20043;-78
2023/03/17 02:05:37;;;;;;;13.60;4.90;;;;;;;-1.03;48.64;63609.59;4957432;28;20049;-76
2023/03/17 02:08:10;;;;;;;9.15;5.50;;;;;;;-1.05;48.79;63591.78;4973084;28;20502;-76
2023/03/17 02:10:36;;;;;;;18.30;8.68;;;;;;;-1.06;48.72;63590.66;4957704;28;20038;-77
2023/03/17 02:13:04;;;;;;;9.10;5.00;;;;;;;-1.08;48.48;63604.59;4973762;28;20109;-77
2023/03/17 02:15:42;;;;;;;8.98;4.65;;;;;;;-1.10;48.42;63586.22;4957418;28;20490;-76
2023/03/17 02:18:10;;;;;;;10.77;5.25;;;;;;;-1.11;48.71;63585.09;4956963;28;20137;-78
2023/03/17 02:20:36;;;;;;;7.22;4.40;;;;;;;-1.12;48.53;63599.59;4973089;28;20086;-77
2023/03/17 02:23:03;;;;;;;8.73;5.07;;;;;;;-1.07;48.24;63589.56;4972930;28;20054;-75
2023/03/17 02:25:30;;;;;;;6.95;4.78;;;;;;;-1.10;48.03;63586.75;4957092;28;20042;-76
2023/03/17 02:28:00;;;;;;;7.57;4.70;;;;;;;-1.07;47.91;63589.56;4974209;28;20491;-77
2023/03/17 02:30:27;;;;;;;8.65;4.93;;;;;;;-1.01;48.18;63596.22;4973096;28;20039;-76
2023/03/17 02:32:53;;;;;;;6.45;4.45;;;;;;;-1.03;48.35;63594.00;4972631;28;20417;-75
2023/03/17 02:35:21;;;;;;;11.43;5.03;;;;;;;-1.00;48.34;63597.34;4973117;28;20042;-76
2023/03/17 02:37:47;;;;;;;16.05;6.15;;;;;;;-0.98;48.48;63599.56;4956715;28;20145;-76
2023/03/17 02:40:14;;;;;;;11.20;5.47;;;;;;;-0.98;48.29;63600.13;4958128;28;20042;-76
2023/03/17 02:42:40;;;;;;;7.53;4.72;;;;;;;-1.02;48.08;63595.66;4975127;28;20126;-77
2023/03/17 02:45:10;;;;;;;15.70;6.72;;;;;;;-0.93;48.22;63605.13;4974417;28;20085;-77
2023/03/17 02:47:37;;;;;;;22.08;6.40;;;;;;;-0.87;48.19;63611.78;4957553;28;20077;-76
2023/03/17 02:50:05;;;;;;;22.83;6.55;;;;;;;-0.83;48.17;63616.25;4956601;28;20145;-77
2023/03/17 02:52:31;;;;;;;17.10;5.13;;;;;;;-0.80;48.45;63619.03;4972732;28;20499;-76
2023/03/17 02:54:58;;;;;;;7.85;4.45;;;;;;;-0.74;47.61;63626.25;4972832;28;20051;-76
2023/03/17 02:57:23;;;;;;;3.88;3.40;;;;;;;-0.73;47.21;63627.38;4973910;28;20070;-76
2023/03/17 02:59:50;;;;;;;9.02;3.85;;;;;;;-0.71;46.79;63628.47;4972566;28;20058;-76
2023/03/17 03:02:16;;;;;;;6.10;3.92;;;;;;;-0.64;46.42;63636.25;4972715;28;20043;-77
2023/03/17 03:04:42;;;;;;;8.63;4.53;;;;;;;-0.54;46.89;63647.94;4972376;28;20039;-80
2023/03/17 03:07:08;;;;;;;6.40;3.67;;;;;;;-0.56;46.33;63645.75;4954777;28;20098;-76
2023/03/17 03:09:35;;;;;;;7.38;4.05;;;;;;;-0.53;46.04;63648.50;4937012;29;20053;-77
2023/03/17 03:12:01;;;;;;;7.55;3.90;;;;;;;-0.54;45.85;63647.41;4953211;29;20065;-76
2023/03/17 03:14:27;;;;;;;17.20;10.10;;;;;;;-0.57;46.25;63644.63;4954508;28;20545;-75
2023/03/17 03:16:53;;;;;;;5.65;4.60;;;;;;;-0.55;46.08;63646.84;4969872;28;20141;-76
2023/03/17 03:19:19;;;;;;;13.40;4.82;;;;;;;-0.51;45.99;63650.75;4973854;28;20122;-75
2023/03/17 03:21:45;;;;;;;9.77;4.07;;;;;;;-0.49;45.96;63652.97;4972390;28;20146;-75
2023/03/17 03:24:11;;;;;;;6.68;4.78;;;;;;;-0.47;46.01;63655.19;4972582;28;20035;-76
2023/03/17 03:26:37;;;;;;;6.15;4.35;;;;;;;-0.36;46.00;63667.44;4972597;28;20537;-78
2023/03/17 03:29:04;;;;;;;13.95;4.40;;;;;;;-0.36;45.51;63683.06;4972538;28;20054;-76
2023/03/17 03:31:30;;;;;;;7.65;4.38;;;;;;;-0.25;46.00;63679.69;4976058;28;20054;-77
2023/03/17 03:33:56;;;;;;;7.07;4.30;;;;;;;-0.16;45.74;63688.59;4976678;28;20153;-80
2023/03/17 03:36:22;;;;;;;10.27;3.85;;;;;;;-0.08;45.40;63697.50;4976374;28;20066;-78
2023/03/17 03:38:48;;;;;;;7.47;4.45;;;;;;;-0.04;45.08;63701.94;4976148;28;20382;-78
2023/03/17 03:41:14;;;;;;;10.98;3.67;;;;;;;-0.02;44.31;63704.19;4976344;28;20051;-76
2023/03/17 03:43:40;;;;;;;9.00;4.15;;;;;;;0.03;44.86;63709.72;4976087;28;20101;-76
2023/03/17 03:46:06;;;;;;;23.38;4.43;;;;;;;0.06;44.25;63713.06;4976177;28;20043;-75
2023/03/17 03:48:32;;;;;;;5.22;3.55;;;;;;;0.05;44.31;63711.97;4976738;28;20047;-75
2023/03/17 03:50:59;;;;;;;5.63;4.07;;;;;;;0.08;43.56;63715.31;4957837;29;20086;-76
2023/03/17 03:53:27;;;;;;;8.15;3.83;;;;;;;0.18;43.81;63726.44;4956643;29;20043;-77
2023/03/17 03:55:53;;;;;;;7.18;2.95;;;;;;;0.24;42.36;63748.75;4924698;29;20094;-77
2023/03/17 03:58:20;;;;;;;9.43;4.15;;;;;;;0.40;43.12;63749.84;4956506;29;20054;-77
2023/03/17 04:00:46;;;;;;;6.32;3.60;;;;;;;0.47;42.79;63757.63;4940806;29;20050;-77
2023/03/17 04:03:12;;;;;;;11.40;3.17;;;;;;;0.50;41.69;63760.97;4957787;29;20473;-76
2023/03/17 04:05:38;;;;;;;5.57;3.55;;;;;;;0.58;42.13;63769.88;4962244;28;20461;-77
2023/03/17 04:08:05;;;;;;;7.80;3.95;;;;;;;0.68;41.81;63781.03;4975909;28;20047;-77
2023/03/17 04:10:32;;;;;;;10.27;3.80;;;;;;;0.77;41.70;63789.94;4959454;28;20039;-76
2023/03/17 04:12:57;;;;;;;6.50;3.45;;;;;;;0.91;41.88;63805.56;4975586;28;20050;-77
2023/03/17 04:15:24;;;;;;;6.55;3.47;;;;;;;0.93;40.54;63807.78;4959474;28;20557;-77
2023/03/17 04:17:50;;;;;;;6.78;3.95;;;;;;;0.98;40.51;63813.34;4975189;28;20156;-76
2023/03/17 04:20:17;;;;;;;6.47;3.22;;;;;;;1.06;40.20;63821.72;4991684;28;20047;-78
2023/03/17 04:22:43;;;;;;;4.20;3.40;;;;;;;1.07;39.77;63823.38;4959148;28;20054;-78
2023/03/17 04:25:11;;;;;;;10.57;3.40;;;;;;;1.22;40.40;63839.56;4975816;28;20150;-80
2023/03/17 04:27:38;;;;;;;6.13;2.83;;;;;;;1.33;39.95;63851.25;4976517;28;20537;-78
2023/03/17 04:30:04;;;;;;;7.95;3.50;;;;;;;1.57;41.30;63877.47;4975836;28;20054;-79
2023/03/17 04:32:30;;;;;;;4.13;2.95;;;;;;;1.71;39.91;63893.06;4959127;28;20042;-78
2023/03/17 04:34:57;;;;;;;7.53;3.42;;;;;;;1.79;39.33;63902.00;4943568;28;20042;-77
2023/03/17 04:37:24;;;;;;;10.80;2.78;;;;;;;1.80;37.71;63902.56;4974981;28;20081;-77
2023/03/17 04:39:50;;;;;;;9.93;2.53;;;;;;;1.82;37.39;63904.78;4975136;28;20132;-77
2023/03/17 04:42:16;;;;;;;4.95;2.97;;;;;;;1.89;37.45;63913.16;4976562;28;20043;-77
2023/03/17 04:44:42;;;;;;;9.95;2.92;;;;;;;1.88;36.26;63911.47;4976268;28;20050;-75
2023/03/17 04:47:08;;;;;;;13.48;2.72;;;;;;;1.88;35.64;63912.06;4957032;29;20047;-76
2023/03/17 04:49:34;;;;;;;9.88;2.60;;;;;;;2.04;36.36;63929.34;4939794;29;20043;-78
2023/03/17 04:52:00;;;;;;;6.75;2.78;;;;;;;2.09;35.75;63934.91;4955771;29;20560;-75
2023/03/17 04:54:26;;;;;;;13.93;3.30;;;;;;;2.09;35.93;63934.91;4955808;29;20041;-79
2023/03/17 04:56:52;;;;;;;7.30;3.08;;;;;;;2.10;35.54;63936.03;4971858;28;20054;-78
2023/03/17 04:59:18;;;;;;;11.48;3.63;;;;;;;2.23;36.09;63949.97;4956112;29;20087;-77
2023/03/17 05:01:45;;;;;;;16.83;4.30;;;;;;;2.43;36.16;63971.75;4960313;28;20043;-78
2023/03/17 05:04:11;;;;;;;11.57;3.60;;;;;;;2.61;36.09;63991.28;4954917;29;20134;-78
2023/03/17 05:06:37;;;;;;;22.42;3.95;;;;;;;2.79;36.71;64010.84;4973723;28;20129;-77
2023/03/17 05:09:03;;;;;;;31.60;5.80;;;;;;;2.85;35.90;64017.53;4974294;28;20577;-77
2023/03/17 05:11:29;;;;;;;11.35;3.53;;;;;;;2.95;36.26;64028.69;4958432;28;20457;-76
2023/03/17 05:13:55;;;;;;;11.60;3.88;;;;;;;3.02;35.95;64036.50;4976003;28;20054;-78
2023/03/17 05:16:22;;;;;;;8.95;3.78;;;;;;;3.04;36.00;64038.19;4975353;28;20054;-76
2023/03/17 05:18:48;;;;;;;15.73;4.28;;;;;;;3.13;36.28;64048.81;4975943;28;20576;-77
2023/03/17 05:21:15;;;;;;;16.00;4.10;;;;;;;3.24;35.54;64059.97;4974043;28;20533;-77
2023/03/17 05:23:40;;;;;;;15.20;4.32;;;;;;;3.31;35.78;64068.34;4954766;29;20087;-78
2023/03/17 05:26:08;;;;;;;19.00;4.40;;;;;;;3.35;36.13;64072.28;4956177;29;20422;-78
2023/03/17 05:28:33;;;;;;;11.35;4.50;;;;;;;3.37;35.22;64075.06;4987638;28;20125;-78
2023/03/17 05:30:59;;;;;;;10.98;5.00;;;;;;;3.41;35.87;64078.97;4974012;28;20047;-78
2023/03/17 05:33:26;;;;;;;9.75;4.60;;;;;;;3.59;35.81;64099.06;4972672;28;20070;-78
2023/03/17 05:35:52;;;;;;;10.60;5.13;;;;;;;3.68;35.60;64108.00;4957299;28;20046;-78
2023/03/17 05:38:18;;;;;;;13.45;5.30;;;;;;;3.84;35.78;64126.47;4974515;28;20039;-78
2023/03/17 05:40:44;;;;;;;7.80;4.43;;;;;;;4.03;35.70;64147.16;4958229;28;20485;-77
2023/03/17 05:43:10;;;;;;;10.75;4.93;;;;;;;4.11;34.76;64155.53;4974396;28;20062;-77
2023/03/17 05:45:36;;;;;;;18.70;5.60;;;;;;;4.11;35.59;64156.09;4957721;28;20050;-79
2023/03/17 05:48:03;;;;;;;17.42;4.93;;;;;;;4.31;35.72;64177.91;4957964;28;20406;-79
2023/03/17 05:50:29;;;;;;;36.78;16.60;;;;;;;4.43;35.54;64190.75;4974865;28;20042;-78
2023/03/17 05:52:55;;;;;;;17.45;6.28;;;;;;;4.66;35.69;64215.38;4972884;28;20130;-79
2023/03/17 05:55:21;;;;;;;19.20;5.20;;;;;;;4.85;35.68;64236.63;4957616;28;20138;-77
2023/03/17 05:57:47;;;;;;;8.25;4.90;;;;;;;5.05;35.42;64258.47;4973404;28;20049;-78
2023/03/17 06:00:15;;;;;;;14.23;6.47;;;;;;;5.21;35.59;64275.81;4973781;28;20051;-76
2023/03/17 06:02:41;;;;;;;22.15;6.82;;;;;;;5.40;35.36;64297.09;4973712;28;20121;-77
2023/03/17 06:05:07;;;;;;;25.27;6.90;;;;;;;5.45;35.57;64302.66;4974936;28;20479;-76
2023/03/17 06:07:35;;;;;;;28.83;7.00;;;;;;;5.60;35.75;64319.50;4974207;28;20050;-76
2023/03/17 06:10:02;;;;;;;19.92;7.85;;;;;;;5.85;35.62;64346.34;4973692;28;20108;-78
2023/03/17 06:12:28;;;;;;;37.85;7.93;;;;;;;5.88;35.54;64349.16;4958069;28;20406;-77
2023/03/17 06:14:54;;;;;;;43.95;11.13;;;;;;;5.90;35.47;64351.94;4973625;28;20047;-77
2023/03/17 06:17:20;;;;;;;26.15;9.30;;;;;;;6.10;35.42;64373.84;4957671;28;20564;-77
2023/03/17 06:19:46;;;;;;;20.02;7.75;;;;;;;6.27;35.59;64392.31;4973706;28;20133;-78
2023/03/17 06:22:12;;;;;;;31.38;8.20;;;;;;;6.53;35.43;64421.44;4974661;28;20395;-77
2023/03/17 06:24:37;;;;;;;15.35;7.75;;;;;;;6.56;34.85;64424.25;4956830;28;20380;-77
2023/03/17 06:27:03;;;;;;;22.15;7.20;;;;;;;6.63;35.02;64432.09;4973391;28;20047;-77
2023/03/17 06:29:29;;;;;;;19.35;7.40;;;;;;;6.75;34.84;64445.00;4973313;28;20046;-77
2023/03/17 06:31:55;;;;;;;23.10;8.50;;;;;;;7.02;34.91;64474.72;4973161;28;20086;-77
2023/03/17 06:34:22;;;;;;;26.65;8.13;;;;;;;7.24;34.67;64498.81;4974347;28;20136;-78
2023/03/17 06:36:49;;;;;;;25.35;7.90;;;;;;;7.29;34.80;64504.44;4973442;28;20038;-77
2023/03/17 06:39:15;;;;;;;18.48;7.40;;;;;;;7.43;34.81;64520.13;4974361;28;20093;-77
2023/03/17 06:41:41;;;;;;;17.55;7.57;;;;;;;7.57;34.21;64534.72;4974285;28;20039;-76
2023/03/17 06:44:07;;;;;;;32.83;7.40;;;;;;;7.65;34.41;64543.72;4973067;28;20050;-77
2023/03/17 06:46:34;;;;;;;31.77;7.97;;;;;;;7.89;34.15;64570.63;4973015;28;20125;-78
2023/03/17 06:49:00;;;;;;;22.90;7.63;;;;;;;7.88;33.24;64569.53;4956907;28;20047;-78
2023/03/17 06:51:26;;;;;;;31.73;6.95;;;;;;;8.00;33.13;64582.97;4974066;28;20057;-79
2023/03/17 06:53:52;;;;;;;16.67;6.85;;;;;;;7.92;33.06;64573.44;4973026;28;20050;-77
2023/03/17 06:56:18;;;;;;;15.63;6.72;;;;;;;8.01;33.18;64584.13;4974255;28;20062;-77
2023/03/17 06:58:45;;;;;;;19.25;6.97;;;;;;;8.10;33.41;64593.09;4973977;28;20512;-77
2023/03/17 07:01:13;;;;;;;17.15;5.93;;;;;;;8.29;33.73;64614.44;4974058;28;20526;-78
2023/03/17 07:03:40;;;;;;;18.10;6.35;;;;;;;8.48;33.20;64635.78;4972943;28;20057;-78
2023/03/17 07:06:07;;;;;;;21.88;6.60;;;;;;;8.74;33.12;64664.44;4973865;28;20043;-77
2023/03/17 07:08:35;;;;;;;25.20;6.43;;;;;;;8.92;33.05;64684.09;4974025;28;20053;-78
2023/03/17 07:11:03;;;;;;;20.30;6.18;;;;;;;8.98;32.42;64690.25;4972405;28;20035;-78
2023/03/17 07:13:34;;;;;;;33.83;5.65;;;;;;;8.88;31.67;64679.59;4972686;28;20042;-77
2023/03/17 07:16:01;;;;;;;36.58;5.72;;;;;;;8.92;31.25;64684.09;4973791;28;20058;-78
2023/03/17 07:18:30;;;;;;;14.27;6.60;;;;;;;8.82;31.58;64672.84;4973882;28;20050;-79
2023/03/17 07:20:57;;;;;;;21.77;5.78;;;;;;;8.71;31.71;64660.50;4974414;28;20046;-78
2023/03/17 07:23:23;;;;;;;28.65;6.45;;;;;;;8.83;31.77;64673.97;4972602;28;20139;-79
2023/03/17 07:25:50;;;;;;;19.23;6.22;;;;;;;8.90;31.64;64681.84;4972575;28;20146;-79
2023/03/17 07:28:17;;;;;;;17.08;8.00;;;;;;;8.83;31.34;64673.41;4973972;28;20094;-77
2023/03/17 07:30:45;;;;;;;23.33;6.93;;;;;;;9.05;31.63;64697.56;4973677;28;20062;-77
2023/03/17 07:33:16;;;;;;;13.70;6.25;;;;;;;9.07;31.62;64700.38;4972652;28;20049;-78
2023/03/17 07:35:43;;;;;;;16.13;7.68;;;;;;;9.23;31.58;64718.34;4972858;28;20074;-78
2023/03/17 07:38:09;;;;;;;18.83;6.68;;;;;;;9.31;31.53;64726.78;4972453;28;20473;-78
2023/03/17 07:40:35;;;;;;;22.98;6.57;;;;;;;9.55;31.53;64752.63;4972378;28;20050;-78
2023/03/17 07:43:01;;;;;;;39.42;7.00;;;;;;;9.59;31.11;64757.13;4972260;28;20050;-78
2023/03/17 07:45:27;;;;;;;27.17;6.68;;;;;;;9.71;31.29;64771.19;4973346;28;20090;-77
2023/03/17 07:47:53;;;;;;;21.25;6.55;;;;;;;9.82;31.34;64782.44;4973194;28;20046;-79
2023/03/17 07:50:19;;;;;;;20.23;7.22;;;;;;;9.91;31.13;64793.13;4956379;28;20570;-78
2023/03/17 07:52:46;;;;;;;21.27;8.18;;;;;;;9.96;31.32;64798.75;4956466;28;20137;-77
2023/03/17 07:55:12;;;;;;;15.93;6.38;;;;;;;10.05;31.11;64807.75;4956267;28;20047;-78
2023/03/17 07:57:38;;;;;;;32.97;7.03;;;;;;;9.89;31.17;64790.88;4973353;28;20473;-79
2023/03/17 08:00:09;;;;;;;20.75;6.28;;;;;;;9.97;31.36;64799.88;4972271;28;20046;-78
2023/03/17 08:02:37;;;;;;;13.57;6.00;;;;;;;10.12;31.48;64815.63;4956760;28;20047;-78
2023/03/17 08:05:04;;;;;;;17.15;5.78;;;;;;;10.36;31.35;64842.63;4956091;28;20494;-78
2023/03/17 08:07:30;;;;;;;10.43;4.78;;;;;;;10.45;30.56;64852.19;4972433;28;20409;-78
2023/03/17 08:09:56;;;;;;;11.80;5.60;;;;;;;10.44;30.73;64851.63;4956172;28;20043;-78
2023/03/17 08:12:23;;;;;;;11.55;4.68;;;;;;;10.35;31.20;64841.53;4971928;28;20043;-78
2023/03/17 08:14:49;;;;;;;13.02;4.20;;;;;;;10.45;31.46;64852.78;4972834;28;20051;-78
2023/03/17 08:17:16;;;;;;;7.28;4.63;;;;;;;10.60;31.29;64868.50;4974987;28;20516;-77
2023/03/17 08:19:42;;;;;;;12.65;3.53;;;;;;;10.70;31.35;64880.34;4976703;28;20490;-78
2023/03/17 08:22:09;;;;;;;7.45;3.00;;;;;;;10.88;31.09;64899.47;4959423;28;20430;-79
2023/03/17 08:24:41;;;;;;;11.75;3.28;;;;;;;10.98;30.84;64910.16;4975568;28;20043;-81
2023/03/17 08:27:07;;;;;;;9.45;3.10;;;;;;;10.96;30.89;64907.91;4975610;28;20125;-79
2023/03/17 08:29:33;;;;;;;6.63;2.72;;;;;;;10.93;31.22;64905.09;4977091;28;20129;-78
2023/03/17 08:31:59;;;;;;;5.22;2.78;;;;;;;10.97;31.36;64909.59;4977174;28;20074;-78
2023/03/17 08:34:25;;;;;;;23.48;2.80;;;;;;;10.95;31.57;64907.34;4975743;28;20125;-78
2023/03/17 08:36:52;;;;;;;7.90;2.22;;;;;;;11.09;31.79;64922.53;4977135;28;20050;-78
2023/03/17 08:39:19;;;;;;;11.77;3.15;;;;;;;11.29;31.85;64944.50;4959546;28;20051;-78
2023/03/17 08:41:45;;;;;;;5.60;2.75;;;;;;;11.37;31.57;64954.09;4975443;28;20406;-78
2023/03/17 08:44:11;;;;;;;7.18;2.33;;;;;;;11.62;31.54;64981.69;4959498;28;20054;-78
2023/03/17 08:46:39;;;;;;;4.63;2.53;;;;;;;11.83;31.65;65004.78;4975091;28;20050;-77
2023/03/17 08:49:05;;;;;;;8.85;2.30;;;;;;;12.03;31.36;65026.75;4976572;28;20034;-77
2023/03/17 08:51:34;;;;;;;9.05;2.40;;;;;;;11.99;31.15;65021.69;4943131;28;20047;-79
2023/03/17 08:54:00;;;;;;;3.53;2.30;;;;;;;11.98;31.23;65020.56;4976228;28;20055;-77
2023/03/17 08:56:27;;;;;;;3.15;1.90;;;;;;;12.05;31.04;65028.47;4975086;28;20053;-78
2023/03/17 08:58:54;;;;;;;3.13;1.70;;;;;;;11.97;30.96;65019.44;4976024;28;20050;-78
2023/03/17 09:01:23;;;;;;;4.18;1.75;;;;;;;12.04;31.15;65027.34;4976048;28;20046;-78
2023/03/17 09:03:53;;;;;;;1.80;1.50;;;;;;;12.08;31.50;65032.41;4973186;28;20035;-79
2023/03/17 09:06:21;;;;;;;3.72;1.80;;;;;;;12.19;31.23;65044.25;4975488;28;20046;-79
2023/03/17 09:08:49;;;;;;;3.42;2.17;;;;;;;12.27;31.16;65052.69;4972739;28;20509;-78
2023/03/17 09:11:19;;;;;;;1.50;1.40;;;;;;;12.35;31.22;65062.28;4975936;28;20054;-78
2023/03/17 09:13:46;;;;;;;3.03;1.50;;;;;;;12.30;31.68;65056.06;4971374;28;20040;-77
2023/03/17 09:16:13;;;;;;;3.00;1.85;;;;;;;12.23;31.67;65048.75;4971750;28;20042;-79
2023/03/17 09:18:39;;;;;;;7.05;2.10;;;;;;;12.20;31.73;65044.81;4958414;28;20583;-77
2023/03/17 09:21:06;;;;;;;4.53;2.00;;;;;;;12.27;31.89;65053.25;4975240;28;20042;-78
2023/03/17 09:23:32;;;;;;;4.35;2.00;;;;;;;12.16;31.74;65040.84;4973976;28;20078;-84
2023/03/17 09:25:59;;;;;;;3.88;2.03;;;;;;;12.32;33.06;65058.88;4962490;28;20077;-85
2023/03/17 09:28:25;;;;;;;7.70;1.98;;;;;;;12.37;32.41;65064.53;4973853;28;20433;-87
2023/03/17 09:30:51;;;;;;;6.55;2.38;;;;;;;12.60;33.00;65089.34;4978271;28;20055;-92
2023/03/17 09:33:17;;;;;;;2.85;1.80;;;;;;;12.76;33.27;65107.38;4981762;28;20046;-86
2023/03/17 09:35:44;;;;;;;3.72;1.98;;;;;;;13.06;32.64;65140.06;4978245;28;20046;-84
2023/03/17 09:38:11;;;;;;;3.88;1.90;;;;;;;13.22;33.40;65158.13;4975025;28;20141;-86
2023/03/17 09:40:45;;;;;;;4.22;2.13;;;;;;;13.52;32.21;65190.88;4991257;28;20100;-85
2023/03/17 09:43:22;;;;;;;4.30;2.30;;;;;;;13.64;32.38;65204.41;4975544;28;20054;-85
2023/03/17 09:45:48;;;;;;;3.92;2.20;;;;;;;13.84;31.83;65226.41;4958513;28;20054;-83
2023/03/17 09:48:35;;;;;;;6.65;2.40;;;;;;;14.20;31.88;65266.50;4973466;28;20182;-86
2023/03/17 09:51:05;;;;;;;4.82;2.50;;;;;;;14.28;31.45;65275.53;4975062;28;20067;-86
2023/03/17 09:53:41;;;;;;;7.05;2.58;;;;;;;14.29;30.89;65276.09;4990280;28;20174;-80
2023/03/17 09:56:12;;;;;;;18.23;2.75;;;;;;;14.26;30.73;65273.28;4972680;28;20042;-79
2023/03/17 09:58:41;;;;;;;4.70;2.40;;;;;;;14.14;31.00;65259.72;4973168;28;20121;-78
2023/03/17 10:01:09;;;;;;;5.15;2.83;;;;;;;14.14;30.82;65259.16;4941898;28;20049;-79
2023/03/17 10:03:36;;;;;;;27.55;3.28;;;;;;;13.77;31.17;65219.09;4957690;28;20101;-79
2023/03/17 10:06:27;;;;;;;3.88;2.28;;;;;;;13.71;31.82;65212.31;4973941;28;20046;-78
2023/03/17 10:09:12;;;;;;;5.32;2.45;;;;;;;13.96;31.16;65239.41;4973666;28;20054;-79
2023/03/17 10:11:42;;;;;;;3.95;2.20;;;;;;;14.04;31.27;65248.44;4948499;28;20050;-78
2023/03/17 10:14:32;;;;;;;8.30;2.63;;;;;;;14.21;31.04;65267.63;4973032;28;20414;-78
2023/03/17 10:17:00;;;;;;;2.65;2.17;;;;;;;14.41;30.34;65289.66;4974820;28;20340;-79
2023/03/17 10:19:39;;;;;;;5.80;2.37;;;;;;;14.46;30.19;65295.28;4989521;28;20050;-78
2023/03/17 10:22:38;;;;;;;3.50;2.30;;;;;;;14.43;30.83;65291.34;4957005;28;20051;-79
2023/03/17 10:25:13;;;;;;;5.75;2.47;;;;;;;14.30;31.10;65277.78;4989609;28;20073;-79
2023/03/17 10:27:41;;;;;;;5.70;2.55;;;;;;;14.63;30.94;65313.97;4966409;28;20047;-80
2023/03/17 10:30:19;;;;;;;7.45;2.67;;;;;;;14.77;30.84;65329.75;4955284;28;20130;-78
2023/03/17 10:32:45;;;;;;;13.38;2.65;;;;;;;14.78;30.08;65330.31;4963051;28;20043;-79
2023/03/17 10:35:13;;;;;;;3.90;2.40;;;;;;;15.01;30.52;65356.31;4988481;28;20053;-80
2023/03/17 10:37:39;;;;;;;6.10;2.60;;;;;;;15.32;29.57;65389.66;4973770;28;20102;-80
2023/03/17 10:40:13;;;;;;;4.72;2.70;;;;;;;15.50;29.62;65410.03;4961679;28;20038;-80
2023/03/17 10:42:53;;;;;;;8.00;3.42;;;;;;;15.87;29.09;65450.72;4974296;28;20522;-79
2023/03/17 10:45:34;;;;;;;6.90;2.97;;;;;;;15.96;28.28;65461.47;4971465;28;20066;-78
2023/03/17 10:48:03;;;;;;;10.02;2.80;;;;;;;16.22;28.59;65490.31;4953824;28;20072;-80
2023/03/17 10:50:38;;;;;;;9.25;3.08;;;;;;;16.38;27.41;65507.84;4968633;28;20031;-79
2023/03/17 10:53:18;;;;;;;5.97;2.95;;;;;;;16.22;27.87;65490.31;4947356;28;20039;-79
2023/03/17 10:55:49;;;;;;;6.13;2.95;;;;;;;16.52;27.26;65523.69;4938038;28;20465;-80
2023/03/17 10:58:28;;;;;;;7.50;3.20;;;;;;;16.71;27.74;65544.06;4964058;28;20042;-80
2023/03/17 11:01:04;;;;;;;11.32;3.38;;;;;;;16.99;27.29;65575.78;4953653;29;20506;-81
2023/03/17 11:03:38;;;;;;;5.75;3.28;;;;;;;17.11;26.66;65588.81;4958867;28;20034;-79
2023/03/17 11:06:09;;;;;;;9.23;3.25;;;;;;;17.26;26.52;65605.22;4974283;28;20051;-79
2023/03/17 11:08:38;;;;;;;12.68;3.50;;;;;;;17.45;26.15;65626.16;4972860;28;20446;-79
2023/03/17 11:11:07;;;;;;;9.23;3.28;;;;;;;17.29;27.00;65608.06;4988993;28;20094;-80
2023/03/17 11:13:33;;;;;;;20.85;3.83;;;;;;;17.28;26.81;65607.50;4973986;28;20050;-79
2023/03/17 11:16:21;;;;;;;9.18;3.10;;;;;;;17.15;26.75;65592.75;4972643;28;20050;-78
2023/03/17 11:18:50;;;;;;;11.93;3.92;;;;;;;17.49;26.33;65630.72;4973017;28;20470;-79
2023/03/17 11:21:45;;;;;;;7.90;4.10;;;;;;;17.78;26.90;65663.00;4988518;28;20055;-78
2023/03/17 11:24:19;;;;;;;4.03;3.08;;;;;;;18.09;26.33;65697.56;4972481;28;20063;-80
2023/03/17 11:26:51;;;;;;;7.18;3.25;;;;;;;18.19;25.95;65708.31;4956804;28;20043;-79
2023/03/17 11:29:35;;;;;;;6.20;3.00;;;;;;;18.30;25.47;65720.22;4972661;28;20122;-79
2023/03/17 11:32:31;;;;;;;7.97;3.15;;;;;;;18.11;26.08;65699.25;4972375;28;20126;-79
2023/03/17 11:35:11;;;;;;;6.47;3.03;;;;;;;18.45;25.77;65737.78;4972707;28;20053;-80
2023/03/17 11:38:03;;;;;;;7.43;3.03;;;;;;;18.70;25.44;65765.00;4956252;28;20045;-79